Time;durP1;ratioP1;P1;durP2;ratioP2;P2;SDS_P1;SDS_P2;PMS_P1;PMS_P2;Temp;Humidity;BMP_temperature;BMP_pressure;BME280_temperature;BME280_humidity;BME280_pressure;Samples;Min_cycle;Max_cycle;Signal;HPM_P1;HPM_P2
2022/06/27 00:01:00;;;;;;;8.02;3.13;;;;;;;15.07;93.43;101659.41;5051118;28;20051;-73
2022/06/27 00:03:26;;;;;;;9.95;3.70;;;;;;;15.07;94.38;101658.59;5051294;28;20025;-73
2022/06/27 00:05:51;;;;;;;4.75;3.13;;;;;;;15.07;95.83;101661.28;5051449;28;20044;-73
2022/06/27 00:08:16;;;;;;;7.28;3.38;;;;;;;15.07;95.91;101658.59;5051144;28;20111;-73
2022/06/27 00:10:42;;;;;;;6.95;3.67;;;;;;;15.06;96.81;101664.94;5051692;28;20445;-73
2022/06/27 00:13:07;;;;;;;7.60;3.85;;;;;;;15.04;97.28;101659.72;5051517;28;20067;-72
2022/06/27 00:15:33;;;;;;;6.47;3.50;;;;;;;15.03;97.15;101660.69;5051044;28;20037;-73
2022/06/27 00:17:58;;;;;;;5.68;3.85;;;;;;;15.04;97.41;101665.09;5033359;28;20044;-73
2022/06/27 00:20:24;;;;;;;8.40;3.65;;;;;;;15.03;97.20;101659.88;5051350;28;20377;-73
2022/06/27 00:22:51;;;;;;;10.00;3.83;;;;;;;15.03;97.08;101663.38;5051564;28;20091;-73
2022/06/27 00:25:16;;;;;;;7.47;4.00;;;;;;;15.03;97.31;101663.38;5051133;28;20055;-73
2022/06/27 00:27:42;;;;;;;11.23;3.90;;;;;;;15.03;97.43;101666.06;5051077;28;20029;-73
2022/06/27 00:30:08;;;;;;;6.45;3.60;;;;;;;15.02;97.39;101671.56;5051252;28;20033;-73
2022/06/27 00:32:34;;;;;;;10.02;4.93;;;;;;;15.01;97.38;101668.06;5051445;28;20067;-73
2022/06/27 00:34:59;;;;;;;5.35;3.70;;;;;;;15.00;97.71;101671.72;5050749;28;20065;-73
2022/06/27 00:37:25;;;;;;;5.50;3.97;;;;;;;14.98;98.06;101674.56;5050941;28;20040;-73
2022/06/27 00:39:50;;;;;;;5.95;3.72;;;;;;;14.98;98.92;101668.34;5051293;28;20132;-73
2022/06/27 00:42:16;;;;;;;9.50;4.28;;;;;;;14.97;99.24;101672.88;5050987;28;20040;-73
2022/06/27 00:44:43;;;;;;;11.13;4.65;;;;;;;14.98;99.42;101687.13;5050829;28;20033;-73
2022/06/27 00:47:10;;;;;;;11.95;4.20;;;;;;;14.96;99.98;101684.59;5051508;28;20036;-73
2022/06/27 00:49:36;;;;;;;11.57;4.00;;;;;;;14.97;100.00;101688.97;5054823;28;20029;-73
2022/06/27 00:52:04;;;;;;;12.07;4.28;;;;;;;14.96;100.00;101689.09;5053195;28;20028;-74
2022/06/27 00:54:30;;;;;;;9.13;3.92;;;;;;;14.93;100.00;101690.25;5054762;28;20036;-73
2022/06/27 00:56:56;;;;;;;10.45;4.50;;;;;;;14.94;100.00;101699.09;5054651;28;20033;-73
2022/06/27 00:59:21;;;;;;;10.07;5.47;;;;;;;14.93;100.00;101687.56;5054587;28;20056;-73
2022/06/27 01:01:47;;;;;;;11.05;5.78;;;;;;;14.93;100.00;101700.13;5054544;28;20117;-73
2022/06/27 01:04:13;;;;;;;9.88;5.93;;;;;;;14.93;100.00;101697.44;5054668;28;20443;-73
2022/06/27 01:06:38;;;;;;;8.73;5.85;;;;;;;14.95;100.00;101690.09;5054956;28;20051;-73
2022/06/27 01:09:04;;;;;;;10.45;5.47;;;;;;;14.95;100.00;101692.78;5054641;28;20469;-73
2022/06/27 01:11:31;;;;;;;8.35;5.53;;;;;;;14.95;100.00;101684.72;5054404;28;20064;-73
2022/06/27 01:13:56;;;;;;;12.40;6.28;;;;;;;14.97;100.00;101685.41;5054011;28;20052;-74
2022/06/27 01:16:23;;;;;;;9.85;5.70;;;;;;;14.98;100.00;101687.13;5054518;28;20379;-72
2022/06/27 01:18:49;;;;;;;10.20;5.30;;;;;;;14.97;100.00;101685.41;5053027;28;20037;-73
2022/06/27 01:21:22;;;;;;;9.23;6.75;;;;;;;14.98;100.00;101687.13;5054782;28;20135;-73
2022/06/27 01:23:49;;;;;;;12.48;5.72;;;;;;;14.95;100.00;101690.91;5054380;28;20036;-73
2022/06/27 01:26:15;;;;;;;10.02;5.70;;;;;;;14.94;100.00;101686.56;5054101;28;20424;-73
2022/06/27 01:28:43;;;;;;;10.57;6.47;;;;;;;14.92;100.00;101679.66;5053979;28;20098;-73
2022/06/27 01:31:13;;;;;;;10.35;6.45;;;;;;;14.90;100.00;101673.59;5052967;28;20087;-73
2022/06/27 01:33:39;;;;;;;12.60;6.65;;;;;;;14.89;100.00;101682.66;5054106;28;20049;-73
2022/06/27 01:38:50;;;;;;;11.70;6.28;;;;;;;14.88;100.00;101691.66;5053915;28;20381;-73
2022/06/27 01:41:15;;;;;;;12.13;6.60;;;;;;;14.88;100.00;101689.81;5053337;28;20033;-73
2022/06/27 01:43:41;;;;;;;7.47;6.30;;;;;;;14.88;100.00;101684.47;5035398;28;20035;-73
2022/06/27 01:46:06;;;;;;;12.70;6.75;;;;;;;14.89;100.00;101686.16;5053630;28;20040;-73
2022/06/27 01:48:34;;;;;;;9.68;6.82;;;;;;;14.88;100.00;101678.25;5053813;28;20118;-73
2022/06/27 01:51:02;;;;;;;9.25;6.85;;;;;;;14.89;100.00;101677.28;5053356;28;20029;-73
2022/06/27 01:53:29;;;;;;;13.80;7.03;;;;;;;14.87;100.00;101672.06;5053134;28;20037;-73
2022/06/27 01:55:54;;;;;;;10.82;6.80;;;;;;;14.88;100.00;101672.91;5053210;28;20466;-72
2022/06/27 01:58:20;;;;;;;12.45;7.03;;;;;;;14.88;100.00;101680.94;5053279;28;20047;-73
2022/06/27 02:00:46;;;;;;;8.90;6.90;;;;;;;14.88;100.00;101670.22;5053467;28;20048;-73
2022/06/27 02:03:12;;;;;;;13.48;7.47;;;;;;;14.86;100.00;101659.66;5053750;28;20033;-73
2022/06/27 02:05:38;;;;;;;9.85;6.75;;;;;;;14.84;100.00;101664.34;5053225;28;20025;-73
2022/06/27 02:08:04;;;;;;;8.55;7.07;;;;;;;14.85;100.00;101662.50;5052918;28;20374;-73
2022/06/27 02:10:30;;;;;;;13.05;7.60;;;;;;;14.84;100.00;101658.97;5053106;28;20033;-72
2022/06/27 02:12:55;;;;;;;9.60;7.45;;;;;;;14.83;100.00;101656.44;5052982;28;20120;-72
2022/06/27 02:15:22;;;;;;;11.50;7.03;;;;;;;14.79;100.00;101654.06;5053129;28;20037;-73
2022/06/27 02:17:48;;;;;;;9.32;7.10;;;;;;;14.75;100.00;101647.31;5053943;28;20429;-74
2022/06/27 02:20:14;;;;;;;11.60;7.22;;;;;;;14.72;100.00;101641.38;5053099;28;20035;-73
2022/06/27 02:22:40;;;;;;;10.60;6.80;;;;;;;14.65;100.00;101630.41;5053155;28;20060;-73
2022/06/27 02:25:06;;;;;;;10.30;6.85;;;;;;;14.55;100.00;101638.44;5052983;28;20067;-73
2022/06/27 02:27:34;;;;;;;11.05;6.82;;;;;;;14.45;100.00;101640.28;5053317;28;20048;-73
2022/06/27 02:29:59;;;;;;;9.35;6.40;;;;;;;14.35;100.00;101645.69;5052912;28;20075;-76
2022/06/27 02:32:26;;;;;;;11.02;7.07;;;;;;;14.28;100.00;101650.75;5052964;28;20072;-73
2022/06/27 02:34:54;;;;;;;10.50;7.07;;;;;;;14.22;100.00;101647.81;5052846;28;20099;-73
2022/06/27 02:37:19;;;;;;;13.20;8.15;;;;;;;14.19;100.00;101650.78;5051355;28;20040;-73
2022/06/27 02:39:46;;;;;;;10.98;7.40;;;;;;;14.16;100.00;101645.72;5052434;28;20041;-73
2022/06/27 02:42:14;;;;;;;9.07;7.50;;;;;;;14.14;100.00;101647.69;5052522;28;20056;-73
2022/06/27 02:44:39;;;;;;;12.52;7.93;;;;;;;14.13;100.00;101649.53;5052550;28;20033;-73
2022/06/27 02:47:06;;;;;;;11.60;7.57;;;;;;;14.10;100.00;101644.47;5052400;28;20070;-74
2022/06/27 02:49:32;;;;;;;9.82;7.30;;;;;;;14.02;100.00;101644.34;5052719;28;20116;-72
2022/06/27 02:52:26;;;;;;;12.07;7.47;;;;;;;13.94;100.00;101639.69;5051405;28;20025;-73
2022/06/27 02:55:02;;;;;;;9.40;7.13;;;;;;;13.86;100.00;101640.38;5052951;28;20060;-74
2022/06/27 02:57:37;;;;;;;16.92;8.35;;;;;;;13.79;100.00;101635.75;5053009;28;20036;-73
2022/06/27 03:00:05;;;;;;;13.43;8.38;;;;;;;13.72;100.00;101633.66;5052586;28;20029;-73
2022/06/27 03:02:31;;;;;;;9.45;6.50;;;;;;;13.66;100.00;101630.66;5051936;28;20059;-73
2022/06/27 03:04:57;;;;;;;13.35;7.93;;;;;;;13.60;100.00;101629.41;5052148;28;20033;-72
2022/06/27 03:07:23;;;;;;;8.75;6.22;;;;;;;13.52;100.00;101622.06;5052329;28;20158;-72
2022/06/27 03:09:48;;;;;;;8.57;6.55;;;;;;;13.46;100.00;101625.31;5051966;28;20492;-72
2022/06/27 03:12:14;;;;;;;12.85;7.20;;;;;;;13.45;100.00;101633.47;5052318;28;20041;-72
2022/06/27 03:14:39;;;;;;;9.80;6.85;;;;;;;13.41;100.00;101632.91;5052061;28;20029;-72
2022/06/27 03:17:05;;;;;;;12.13;7.50;;;;;;;13.40;100.00;101631.22;5051941;28;20052;-75
2022/06/27 03:19:31;;;;;;;11.98;6.80;;;;;;;13.37;100.00;101620.78;5051959;28;20120;-73
2022/06/27 03:21:56;;;;;;;9.77;7.20;;;;;;;13.35;100.00;101622.78;5051965;28;20033;-73
2022/06/27 03:24:22;;;;;;;10.57;8.25;;;;;;;13.33;100.00;101619.34;5052236;28;20052;-73
2022/06/27 03:26:47;;;;;;;9.40;7.30;;;;;;;13.31;100.00;101615.97;5051905;28;20048;-73
2022/06/27 03:29:13;;;;;;;13.20;7.93;;;;;;;13.25;100.00;101611.19;5051853;28;20033;-73
2022/06/27 03:31:40;;;;;;;9.35;7.18;;;;;;;13.21;100.00;101614.13;5051619;28;20074;-72
2022/06/27 03:34:05;;;;;;;8.07;6.72;;;;;;;13.16;100.00;101611.00;5051973;28;20045;-73
2022/06/27 03:36:31;;;;;;;7.68;6.10;;;;;;;13.10;100.00;101614.25;5050258;28;20052;-73
2022/06/27 03:38:56;;;;;;;8.65;7.18;;;;;;;13.07;100.00;101625.19;5051504;28;20045;-73
2022/06/27 03:41:21;;;;;;;13.32;7.57;;;;;;;13.05;100.00;101622.66;5051685;28;20029;-73
2022/06/27 03:43:47;;;;;;;11.65;7.10;;;;;;;13.07;100.00;101627.03;5051507;28;20033;-72
2022/06/27 03:46:12;;;;;;;6.47;5.50;;;;;;;13.11;100.00;101623.13;5050830;28;20120;-72
2022/06/27 03:51:22;;;;;;;9.68;7.18;;;;;;;13.28;100.00;101610.91;5051493;28;20125;-73
2022/06/27 03:53:47;;;;;;;10.43;6.55;;;;;;;13.37;100.00;101602.09;5051170;28;20060;-72
2022/06/27 03:56:12;;;;;;;7.97;5.70;;;;;;;13.40;100.00;101591.97;5051641;28;20075;-72
2022/06/27 03:58:38;;;;;;;16.85;7.97;;;;;;;13.48;100.00;101601.09;5051358;28;20063;-72
2022/06/27 04:01:03;;;;;;;9.40;6.28;;;;;;;13.51;100.00;101606.16;5051401;28;20065;-73
2022/06/27 04:03:30;;;;;;;7.88;6.28;;;;;;;13.50;100.00;101602.66;5051270;28;20048;-73
2022/06/27 04:05:56;;;;;;;9.75;6.53;;;;;;;13.45;100.00;101606.72;5051227;28;20127;-73
2022/06/27 04:08:21;;;;;;;7.55;6.45;;;;;;;13.41;100.00;101606.19;5051418;28;20068;-73
2022/06/27 04:10:47;;;;;;;9.43;6.75;;;;;;;13.38;100.00;101617.16;5052077;28;20036;-73
2022/06/27 04:13:12;;;;;;;10.48;6.53;;;;;;;13.35;100.00;101623.59;5051583;28;20086;-73
2022/06/27 04:15:38;;;;;;;8.93;6.53;;;;;;;13.36;100.00;101619.09;5050036;28;20033;-73
2022/06/27 04:18:03;;;;;;;7.45;5.32;;;;;;;13.34;100.00;101613.88;5051317;28;20103;-73
2022/06/27 04:20:29;;;;;;;6.40;5.68;;;;;;;13.35;100.00;101612.91;5051291;28;20457;-74
2022/06/27 04:22:54;;;;;;;10.40;5.75;;;;;;;13.39;100.00;101618.81;5053924;28;20407;-73
2022/06/27 04:25:20;;;;;;;8.57;6.55;;;;;;;13.41;100.00;101614.19;5055699;28;20032;-73
2022/06/27 04:27:45;;;;;;;10.38;6.50;;;;;;;13.42;100.00;101607.88;5055072;28;20130;-74
2022/06/27 04:30:16;;;;;;;7.35;5.85;;;;;;;13.49;100.00;101610.81;5055537;28;20033;-73
2022/06/27 04:32:44;;;;;;;10.10;6.60;;;;;;;13.57;100.00;101606.47;5055390;28;20045;-74
2022/06/27 04:35:09;;;;;;;12.20;7.90;;;;;;;13.71;100.00;101585.66;5055341;28;20440;-73
2022/06/27 04:37:35;;;;;;;10.45;8.32;;;;;;;13.86;100.00;101578.88;5055335;28;20053;-73
2022/06/27 04:40:00;;;;;;;16.38;8.57;;;;;;;14.04;100.00;101580.81;5055347;28;20187;-74
2022/06/27 04:42:26;;;;;;;15.35;9.25;;;;;;;14.19;100.00;101571.34;5054991;28;20082;-74
2022/06/27 04:44:53;;;;;;;13.30;8.18;;;;;;;14.29;100.00;101555.25;5055033;28;20029;-74
2022/06/27 04:47:19;;;;;;;14.18;8.68;;;;;;;14.38;100.00;101551.72;5054753;28;20093;-74
2022/06/27 04:49:44;;;;;;;15.80;8.35;;;;;;;14.44;100.00;101552.97;5055361;28;20112;-74
2022/06/27 04:52:12;;;;;;;12.85;8.60;;;;;;;14.48;100.00;101554.34;5054791;28;20033;-73
2022/06/27 04:54:38;;;;;;;11.82;7.93;;;;;;;14.49;100.00;101549.84;5054439;28;20039;-73
2022/06/27 04:57:05;;;;;;;12.13;7.72;;;;;;;14.43;100.00;101570.00;5054831;28;20392;-74
2022/06/27 04:59:31;;;;;;;15.00;7.25;;;;;;;14.34;100.00;101574.41;5053247;28;20029;-74
2022/06/27 05:01:56;;;;;;;10.05;7.00;;;;;;;14.24;100.00;101571.75;5054585;28;20048;-73
2022/06/27 05:04:22;;;;;;;11.45;7.60;;;;;;;14.13;100.00;101569.25;5053307;28;20036;-74
2022/06/27 05:06:49;;;;;;;10.90;7.13;;;;;;;14.05;100.00;101567.28;5054968;28;20457;-74
2022/06/27 05:09:15;;;;;;;10.75;7.65;;;;;;;13.99;100.00;101572.38;5054500;28;20036;-74
2022/06/27 05:11:41;;;;;;;10.07;7.13;;;;;;;13.93;100.00;101565.78;5055144;28;20028;-74
2022/06/27 05:14:08;;;;;;;11.10;7.35;;;;;;;13.89;100.00;101564.38;5056022;28;20100;-73
2022/06/27 05:16:33;;;;;;;10.35;7.57;;;;;;;13.90;100.00;101571.41;5054961;28;20041;-73
2022/06/27 05:18:59;;;;;;;12.18;8.50;;;;;;;13.95;100.00;101579.00;5055800;28;20543;-74
2022/06/27 05:21:25;;;;;;;9.52;7.40;;;;;;;14.02;100.00;101580.13;5055239;28;20025;-74
2022/06/27 05:23:51;;;;;;;10.68;7.95;;;;;;;14.12;100.00;101591.63;5054829;28;20041;-73
2022/06/27 05:26:17;;;;;;;11.70;9.10;;;;;;;14.21;100.00;101587.25;5055479;28;20051;-73
2022/06/27 05:28:43;;;;;;;29.52;19.65;;;;;;;14.29;100.00;101571.31;5054941;28;20128;-73
2022/06/27 05:31:09;;;;;;;19.23;12.30;;;;;;;14.36;100.00;101585.81;5055031;28;20029;-73
2022/06/27 05:33:35;;;;;;;19.58;11.20;;;;;;;14.48;100.00;101588.31;5054199;28;20036;-73
2022/06/27 05:36:00;;;;;;;12.93;9.30;;;;;;;14.56;100.00;101578.53;5054664;28;20037;-73
2022/06/27 05:38:26;;;;;;;14.50;8.35;;;;;;;14.65;100.00;101592.09;5054514;28;20036;-75
2022/06/27 05:40:51;;;;;;;14.93;8.63;;;;;;;14.68;100.00;101606.03;5055389;28;20487;-72
2022/06/27 05:43:17;;;;;;;19.05;11.73;;;;;;;14.70;100.00;101603.19;5055301;28;20044;-74
2022/06/27 05:45:42;;;;;;;16.58;10.48;;;;;;;14.75;100.00;101611.63;5054622;28;20040;-73
2022/06/27 05:48:08;;;;;;;13.15;8.73;;;;;;;14.83;100.00;101613.59;5054827;28;20020;-73
2022/06/27 05:50:34;;;;;;;11.38;8.40;;;;;;;14.93;100.00;101619.75;5054175;28;20033;-74
2022/06/27 05:53:01;;;;;;;12.52;7.93;;;;;;;15.03;100.00;101619.66;5054723;28;20033;-74
2022/06/27 05:55:28;;;;;;;13.15;7.80;;;;;;;15.14;100.00;101627.53;5055012;28;20066;-74
2022/06/27 05:57:54;;;;;;;16.00;8.77;;;;;;;15.23;100.00;101631.97;5054453;28;20119;-73
2022/06/27 06:00:21;;;;;;;12.65;9.30;;;;;;;15.33;100.00;101647.97;5054506;28;20039;-73
2022/06/27 06:02:47;;;;;;;12.05;8.77;;;;;;;15.46;100.00;101651.16;5053975;28;20063;-73
2022/06/27 06:05:14;;;;;;;12.75;8.65;;;;;;;15.64;100.00;101661.88;5054663;28;20060;-74
2022/06/27 06:07:43;;;;;;;19.13;9.35;;;;;;;15.84;100.00;101668.00;5054439;28;20041;-73
2022/06/27 06:10:09;;;;;;;13.52;8.68;;;;;;;16.01;100.00;101654.72;5054319;28;20029;-73
2022/06/27 06:12:34;;;;;;;20.83;11.50;;;;;;;16.16;100.00;101669.25;5054135;28;20064;-74
2022/06/27 06:15:03;;;;;;;16.45;8.60;;;;;;;16.31;100.00;101663.34;5054219;28;20060;-73
2022/06/27 06:17:33;;;;;;;14.18;8.40;;;;;;;16.48;100.00;101649.03;5054058;28;20113;-74
2022/06/27 06:19:59;;;;;;;14.85;8.15;;;;;;;16.65;100.00;101657.19;5054062;28;20486;-74
2022/06/27 06:22:24;;;;;;;18.98;8.07;;;;;;;16.79;100.00;101670.00;5054106;28;20120;-74
2022/06/27 06:24:50;;;;;;;10.00;7.75;;;;;;;16.95;100.00;101655.03;5054000;28;20041;-74
2022/06/27 06:27:16;;;;;;;12.93;7.85;;;;;;;17.10;100.00;101659.59;5053981;28;20044;-74
2022/06/27 06:29:43;;;;;;;12.02;7.18;;;;;;;17.25;100.00;101667.88;5053628;28;20028;-74
2022/06/27 06:32:08;;;;;;;11.75;7.80;;;;;;;17.40;100.00;101669.97;5054069;28;20048;-74
2022/06/27 06:34:35;;;;;;;14.00;7.70;;;;;;;17.51;99.17;101669.66;5053862;28;20382;-75
2022/06/27 06:37:02;;;;;;;18.40;7.70;;;;;;;17.64;97.31;101682.63;5053602;28;20120;-75
2022/06/27 06:39:28;;;;;;;16.02;7.82;;;;;;;17.73;95.37;101684.31;5053917;28;20056;-74
2022/06/27 06:41:54;;;;;;;15.85;7.20;;;;;;;17.83;94.26;101694.13;5053348;28;20037;-74
2022/06/27 06:44:20;;;;;;;12.20;7.00;;;;;;;17.85;92.39;101694.78;5053171;28;20039;-74
2022/06/27 06:46:45;;;;;;;10.40;7.47;;;;;;;17.82;92.28;101687.88;5053232;28;20132;-74
2022/06/27 06:49:10;;;;;;;14.13;7.53;;;;;;;17.77;92.77;101693.75;5053299;28;20407;-75
2022/06/27 06:51:39;;;;;;;13.25;7.63;;;;;;;17.67;92.08;101690.38;5052823;28;20048;-75
2022/06/27 06:54:06;;;;;;;17.77;7.88;;;;;;;17.61;92.69;101672.19;5052898;28;20043;-74
2022/06/27 06:56:32;;;;;;;14.30;8.13;;;;;;;17.59;94.04;101655.38;5053452;28;20062;-76
2022/06/27 06:58:59;;;;;;;14.27;8.27;;;;;;;17.57;95.43;101643.94;5052920;28;20033;-73
2022/06/27 07:01:25;;;;;;;11.68;8.00;;;;;;;17.57;95.76;101638.53;5052700;28;20040;-74
2022/06/27 07:03:51;;;;;;;14.20;7.68;;;;;;;17.56;95.02;101640.41;5053098;28;20044;-74
2022/06/27 07:06:17;;;;;;;12.65;7.93;;;;;;;17.60;96.19;101644.47;5052806;28;20330;-75
2022/06/27 07:08:45;;;;;;;13.38;7.80;;;;;;;17.70;95.33;101632.69;5052639;28;20040;-76
2022/06/27 07:11:11;;;;;;;13.30;7.20;;;;;;;17.78;94.26;101632.72;5052634;28;20484;-75
2022/06/27 07:13:38;;;;;;;8.95;7.25;;;;;;;17.86;94.20;101619.25;5052617;28;20032;-76
2022/06/27 07:16:05;;;;;;;12.43;7.35;;;;;;;17.96;93.94;101611.03;5051484;28;20044;-75
2022/06/27 07:18:32;;;;;;;9.20;6.78;;;;;;;18.07;93.87;101629.53;5051670;28;20082;-75
2022/06/27 07:20:59;;;;;;;12.38;7.63;;;;;;;18.19;93.67;101634.56;5052626;28;20131;-75
2022/06/27 07:23:24;;;;;;;14.07;7.30;;;;;;;18.36;91.48;101625.44;5052146;28;20056;-76
2022/06/27 07:25:49;;;;;;;12.90;7.53;;;;;;;18.57;89.99;101630.28;5052487;28;20084;-75
2022/06/27 07:28:15;;;;;;;11.45;7.20;;;;;;;18.77;89.53;101625.34;5052106;28;20085;-75
2022/06/27 07:30:42;;;;;;;11.80;7.55;;;;;;;18.86;87.40;101626.19;5052501;28;20082;-75
2022/06/27 07:33:08;;;;;;;10.57;7.38;;;;;;;18.83;87.42;101650.75;5052323;28;20417;-76
2022/06/27 07:35:34;;;;;;;22.10;8.10;;;;;;;18.77;86.86;101640.69;5051955;28;20028;-75
2022/06/27 07:38:00;;;;;;;12.70;7.45;;;;;;;18.71;88.02;101639.50;5052144;28;20037;-76
2022/06/27 07:40:25;;;;;;;11.52;7.53;;;;;;;18.73;89.58;101650.13;5052213;28;20053;-76
2022/06/27 07:42:53;;;;;;;14.57;7.78;;;;;;;18.78;88.79;101662.06;5052196;28;20029;-76
2022/06/27 07:45:19;;;;;;;10.90;7.47;;;;;;;18.85;89.30;101664.91;5052339;28;20037;-75
2022/06/27 07:47:46;;;;;;;8.20;6.70;;;;;;;18.91;85.04;101669.63;5050869;28;20036;-77
2022/06/27 07:50:36;;;;;;;10.75;7.07;;;;;;;18.99;84.66;101663.38;5052269;28;20566;-74
2022/06/27 07:53:12;;;;;;;13.00;6.93;;;;;;;19.08;81.24;101672.25;5050698;28;20041;-76
2022/06/27 07:55:53;;;;;;;14.63;6.75;;;;;;;19.14;82.09;101663.50;5051982;28;20056;-75
2022/06/27 07:58:30;;;;;;;17.70;6.97;;;;;;;19.17;81.53;101661.25;5052358;28;20033;-74
2022/06/27 08:00:56;;;;;;;16.30;6.32;;;;;;;19.17;80.91;101663.13;5051955;28;20067;-72
2022/06/27 08:03:36;;;;;;;13.70;6.60;;;;;;;19.22;81.71;101668.81;5051730;28;20044;-73
2022/06/27 08:06:08;;;;;;;14.25;7.68;;;;;;;19.36;80.43;101676.19;5052621;28;20029;-71
2022/06/27 08:08:35;;;;;;;;;;;;;;;19.52;80.13;101675.22;5052323;28;20037;-71
2022/06/27 08:11:01;;;;;;;18.67;7.32;;;;;;;19.68;79.04;101670.75;5051763;28;19925;-73
2022/06/27 08:13:28;;;;;;;17.02;6.40;;;;;;;19.78;79.27;101682.19;5052281;28;20032;-72
2022/06/27 08:15:53;;;;;;;13.10;6.65;;;;;;;19.84;77.48;101664.41;5051590;28;20162;-73
2022/06/27 08:18:19;;;;;;;10.77;6.65;;;;;;;19.85;75.24;101666.94;5051537;28;20125;-72
2022/06/27 08:20:48;;;;;;;9.18;6.07;;;;;;;19.81;76.42;101662.09;5051715;28;20021;-72
2022/06/27 08:23:14;;;;;;;14.02;6.22;;;;;;;19.74;76.86;101646.56;5052281;28;20078;-73
2022/06/27 08:25:41;;;;;;;13.50;5.90;;;;;;;19.80;76.84;101655.03;5052271;28;20063;-71
2022/06/27 08:28:08;;;;;;;11.20;6.18;;;;;;;19.93;74.04;101649.84;5052052;28;20061;-74
2022/06/27 08:30:34;;;;;;;13.40;6.60;;;;;;;20.25;74.93;101655.97;5050772;28;20033;-72
2022/06/27 08:33:00;;;;;;;9.80;6.68;;;;;;;20.62;74.22;101665.06;5050302;28;20378;-71
2022/06/27 08:35:26;;;;;;;10.98;6.60;;;;;;;20.83;71.48;101661.66;5052117;28;20037;-73
2022/06/27 08:37:52;;;;;;;11.27;6.28;;;;;;;20.90;71.91;101670.69;5051729;28;20373;-72
2022/06/27 08:40:19;;;;;;;14.73;6.28;;;;;;;21.01;69.31;101676.66;5051623;28;20076;-72
2022/06/27 08:42:45;;;;;;;15.68;7.03;;;;;;;21.31;67.48;101694.50;5051575;28;20029;-77
2022/06/27 08:45:14;;;;;;;12.27;6.03;;;;;;;21.71;66.96;101702.31;5051566;28;20041;-73
2022/06/27 08:47:41;;;;;;;10.25;5.57;;;;;;;22.04;64.86;101696.38;5051967;28;20102;-72
2022/06/27 08:50:08;;;;;;;16.83;5.47;;;;;;;22.16;62.67;101693.97;5051278;28;20185;-73
2022/06/27 08:52:39;;;;;;;12.25;4.40;;;;;;;22.11;60.69;101699.97;5050169;28;20067;-74
2022/06/27 08:55:08;;;;;;;12.07;5.18;;;;;;;21.88;60.14;101710.16;5051708;28;20116;-75
2022/06/27 08:57:39;;;;;;;8.30;5.15;;;;;;;21.71;63.10;101702.31;5052019;28;20033;-72
2022/06/27 09:00:07;;;;;;;10.45;5.93;;;;;;;21.71;62.80;101691.47;5051718;28;20075;-72
2022/06/27 09:02:37;;;;;;;13.65;5.00;;;;;;;21.70;60.17;101697.91;5051420;28;20033;-73
2022/06/27 09:05:03;;;;;;;21.55;5.22;;;;;;;21.57;59.29;101701.31;5051134;28;20032;-72
2022/06/27 09:07:49;;;;;;;11.57;4.68;;;;;;;21.37;63.35;101702.94;5051461;28;20041;-73
2022/06/27 09:10:27;;;;;;;13.43;4.57;;;;;;;21.29;64.80;101706.59;5055060;28;20025;-71
2022/06/27 09:12:57;;;;;;;10.20;4.18;;;;;;;21.26;66.28;101707.78;5054993;28;20029;-71
2022/06/27 09:15:26;;;;;;;11.77;4.10;;;;;;;21.27;65.82;101717.59;5053852;28;20542;-72
2022/06/27 09:18:02;;;;;;;7.20;3.47;;;;;;;21.35;64.47;101707.66;5054963;28;20532;-72
2022/06/27 09:20:57;;;;;;;12.10;3.53;;;;;;;21.43;63.99;101703.00;5055531;28;20445;-72
2022/06/27 09:23:43;;;;;;;9.23;4.00;;;;;;;21.43;64.64;101708.41;5054577;28;20076;-71
2022/06/27 09:26:25;;;;;;;9.27;3.53;;;;;;;21.43;66.06;101696.75;5054918;28;20363;-72
2022/06/27 09:29:09;;;;;;;14.05;3.78;;;;;;;21.40;60.92;101695.25;5054811;28;20453;-76
2022/06/27 09:31:42;;;;;;;7.57;3.40;;;;;;;21.53;59.50;101701.88;5055236;28;20037;-72
2022/06/27 09:34:11;;;;;;;12.88;3.40;;;;;;;21.89;62.58;101692.91;5055488;28;20091;-72
2022/06/27 09:36:42;;;;;;;15.48;4.25;;;;;;;22.38;58.66;101700.22;5055246;28;20033;-71
2022/06/27 09:39:35;;;;;;;7.47;4.00;;;;;;;22.57;56.61;101703.28;5054798;28;20068;-74
2022/06/27 09:42:05;;;;;;;8.48;3.78;;;;;;;22.42;57.95;101703.38;5053613;28;20503;-78
2022/06/27 09:44:35;;;;;;;12.10;3.88;;;;;;;22.31;59.56;101707.44;5055167;28;20021;-72
2022/06/27 09:47:03;;;;;;;10.48;3.85;;;;;;;22.06;59.51;101715.13;5055245;28;20029;-72
2022/06/27 09:49:34;;;;;;;6.70;3.55;;;;;;;22.04;60.56;101717.22;5054673;28;20345;-73
2022/06/27 09:52:04;;;;;;;8.57;3.55;;;;;;;22.09;59.62;101712.03;5054150;28;20055;-73
2022/06/27 09:54:32;;;;;;;10.10;3.80;;;;;;;22.12;59.45;101704.34;5054661;28;20029;-72
2022/06/27 09:56:58;;;;;;;10.15;3.40;;;;;;;22.37;59.48;101703.97;5054349;28;20029;-72
2022/06/27 09:59:24;;;;;;;17.27;4.15;;;;;;;22.65;56.94;101708.56;5054085;28;20424;-72
2022/06/27 10:01:50;;;;;;;8.25;2.90;;;;;;;22.91;56.24;101704.34;5054274;28;20090;-72
2022/06/27 10:04:17;;;;;;;10.20;3.10;;;;;;;23.21;57.05;101691.34;5054092;28;20024;-72
2022/06/27 10:06:43;;;;;;;4.40;2.20;;;;;;;23.39;54.45;101696.22;5054504;28;20071;-71
2022/06/27 10:09:12;;;;;;;10.32;2.40;;;;;;;23.37;52.34;101698.31;5053751;28;20104;-73
2022/06/27 10:11:38;;;;;;;7.97;2.33;;;;;;;23.24;50.56;101702.66;5054039;28;20051;-71
2022/06/27 10:14:10;;;;;;;9.15;2.10;;;;;;;22.94;49.45;101699.34;5053601;28;20029;-71
2022/06/27 10:16:49;;;;;;;10.00;2.50;;;;;;;22.68;52.52;101700.03;5053907;28;20179;-71
2022/06/27 10:19:14;;;;;;;8.75;2.25;;;;;;;22.44;52.08;101706.75;5053494;28;20029;-70
2022/06/27 10:21:42;;;;;;;6.13;2.08;;;;;;;22.13;53.61;101706.03;5053674;28;20350;-71
2022/06/27 10:24:19;;;;;;;8.38;2.13;;;;;;;21.89;56.11;101706.44;5053560;28;20033;-71
2022/06/27 10:26:46;;;;;;;6.25;2.03;;;;;;;21.81;57.18;101700.13;5053911;28;20111;-70
2022/06/27 10:29:30;;;;;;;7.63;2.42;;;;;;;21.57;58.98;101708.59;5053180;28;20405;-71
2022/06/27 10:31:56;;;;;;;10.52;3.10;;;;;;;21.33;56.86;101709.75;5053494;28;20090;-81
2022/06/27 10:34:37;;;;;;;9.48;2.85;;;;;;;21.12;59.36;101706.78;5052088;28;20079;-70
2022/06/27 10:37:21;;;;;;;5.35;2.65;;;;;;;21.02;61.20;101695.41;5053168;28;20110;-70
2022/06/27 10:39:48;;;;;;;8.15;3.13;;;;;;;21.04;62.80;101697.94;5053380;28;20474;-71
2022/06/27 10:42:50;;;;;;;7.00;2.90;;;;;;;21.05;62.91;101699.59;5052912;28;20474;-71
2022/06/27 10:45:21;;;;;;;12.40;3.03;;;;;;;21.12;62.61;101693.25;5053201;28;20033;-71
2022/06/27 10:47:51;;;;;;;;;;;;;;;21.25;62.77;101705.28;5053871;28;20033;-74
2022/06/27 10:50:18;;;;;;;6.88;3.33;;;;;;;21.28;61.29;101696.78;5053385;28;19947;-74
2022/06/27 10:52:45;;;;;;;9.32;2.88;;;;;;;21.39;61.76;101698.16;5053440;28;20037;-75
2022/06/27 10:55:24;;;;;;;11.50;2.38;;;;;;;21.46;58.05;101709.91;5052966;28;20081;-74
2022/06/27 10:57:51;;;;;;;5.15;2.00;;;;;;;21.49;57.64;101699.50;5052479;28;20052;-74
2022/06/27 11:00:36;;;;;;;6.18;2.30;;;;;;;21.60;58.04;101708.19;5052094;28;20033;-73
2022/06/27 11:03:02;;;;;;;5.82;2.35;;;;;;;21.79;57.37;101696.75;5052271;28;20032;-74
2022/06/27 11:05:29;;;;;;;8.82;2.63;;;;;;;22.09;55.67;101690.38;5052280;28;20037;-74
2022/06/27 11:07:55;;;;;;;5.57;2.40;;;;;;;22.38;55.36;101694.81;5052571;28;20053;-73
2022/06/27 11:10:21;;;;;;;8.52;2.28;;;;;;;22.82;56.09;101693.63;5051738;28;20362;-73
2022/06/27 11:12:46;;;;;;;5.38;2.63;;;;;;;23.21;52.68;101696.78;5052154;28;20043;-74
2022/06/27 11:15:12;;;;;;;10.27;2.60;;;;;;;23.34;52.03;101696.00;5051980;28;20029;-73
2022/06/27 11:17:42;;;;;;;9.73;2.63;;;;;;;23.66;52.60;101701.72;5052083;28;20162;-73
2022/06/27 11:20:25;;;;;;;7.43;2.38;;;;;;;23.73;51.75;101691.72;5052222;28;20036;-73
2022/06/27 11:23:00;;;;;;;8.25;2.60;;;;;;;23.48;53.19;101689.56;5052776;28;20090;-73
2022/06/27 11:25:28;;;;;;;7.88;2.50;;;;;;;23.16;51.97;101683.81;5051500;28;20039;-73